sensor_id;sensor_type;location;lat;lon;timestamp;pressure;altitude;pressure_sealevel;temperature;humidity
4814;BME280;15375;48.540;9.268;2023-02-19T00:01:15;97870.34;;;10.46;100.00
4814;BME280;15375;48.540;9.268;2023-02-19T00:03:47;97859.44;;;10.42;100.00
4814;BME280;15375;48.540;9.268;2023-02-19T00:06:13;97873.84;;;10.46;100.00
4814;BME280;15375;48.540;9.268;2023-02-19T00:08:39;97860.66;;;10.41;100.00
4814;BME280;15375;48.540;9.268;2023-02-19T00:11:07;97870.31;;;10.49;100.00
4814;BME280;15375;48.540;9.268;2023-02-19T00:13:37;97860.66;;;10.41;100.00
4814;BME280;15375;48.540;9.268;2023-02-19T00:16:15;97867.97;;;10.51;100.00
4814;BME280;15375;48.540;9.268;2023-02-19T00:18:41;97852.06;;;10.43;100.00
4814;BME280;15375;48.540;9.268;2023-02-19T00:21:07;97864.88;;;10.49;100.00
4814;BME280;15375;48.540;9.268;2023-02-19T00:23:33;97856.34;;;10.40;100.00
4814;BME280;15375;48.540;9.268;2023-02-19T00:26:07;97859.00;;;10.47;100.00
4814;BME280;15375;48.540;9.268;2023-02-19T00:28:33;97865.56;;;10.57;100.00
4814;BME280;15375;48.540;9.268;2023-02-19T00:31:23;97857.34;;;10.60;100.00
4814;BME280;15375;48.540;9.268;2023-02-19T00:33:51;97849.94;;;10.61;100.00
4814;BME280;15375;48.540;9.268;2023-02-19T00:36:17;97849.94;;;10.61;100.00
4814;BME280;15375;48.540;9.268;2023-02-19T00:38:43;97847.66;;;10.52;100.00
4814;BME280;15375;48.540;9.268;2023-02-19T00:41:10;97841.41;;;10.55;100.00
4814;BME280;15375;48.540;9.268;2023-02-19T00:46:14;97849.16;;;10.60;100.00
4814;BME280;15375;48.540;9.268;2023-02-19T00:48:40;97836.41;;;10.50;100.00
4814;BME280;15375;48.540;9.268;2023-02-19T00:51:05;97842.22;;;10.52;100.00
4814;BME280;15375;48.540;9.268;2023-02-19T00:53:31;97841.41;;;10.55;100.00
4814;BME280;15375;48.540;9.268;2023-02-19T00:55:56;97828.22;;;10.50;100.00
4814;BME280;15375;48.540;9.268;2023-02-19T00:58:21;97845.72;;;10.53;100.00
4814;BME280;15375;48.540;9.268;2023-02-19T01:00:47;97833.00;;;10.39;100.00
4814;BME280;15375;48.540;9.268;2023-02-19T01:03:12;97844.66;;;10.43;100.00
4814;BME280;15375;48.540;9.268;2023-02-19T01:05:37;97871.06;;;10.53;100.00
4814;BME280;15375;48.540;9.268;2023-02-19T01:08:03;97857.88;;;10.45;100.00
4814;BME280;15375;48.540;9.268;2023-02-19T01:10:28;97850.84;;;10.47;100.00
4814;BME280;15375;48.540;9.268;2023-02-19T01:12:53;97829.88;;;10.41;100.00
4814;BME280;15375;48.540;9.268;2023-02-19T01:15:19;97837.59;;;10.49;100.00
4814;BME280;15375;48.540;9.268;2023-02-19T01:17:44;97845.28;;;10.58;100.00
4814;BME280;15375;48.540;9.268;2023-02-19T01:20:09;97828.97;;;10.54;100.00
4814;BME280;15375;48.540;9.268;2023-02-19T01:22:35;97833.22;;;10.59;100.00
4814;BME280;15375;48.540;9.268;2023-02-19T01:25:00;97839.72;;;10.68;100.00
4814;BME280;15375;48.540;9.268;2023-02-19T01:27:25;97810.28;;;10.53;100.00
4814;BME280;15375;48.540;9.268;2023-02-19T01:29:51;97831.13;;;10.70;100.00
4814;BME280;15375;48.540;9.268;2023-02-19T01:32:16;97818.00;;;10.58;100.00
4814;BME280;15375;48.540;9.268;2023-02-19T01:34:41;97793.13;;;10.52;100.00
4814;BME280;15375;48.540;9.268;2023-02-19T01:37:07;97814.03;;;10.66;100.00
4814;BME280;15375;48.540;9.268;2023-02-19T01:39:36;97798.09;;;10.61;99.58
4814;BME280;15375;48.540;9.268;2023-02-19T01:42:03;97820.88;;;10.81;99.01
4814;BME280;15375;48.540;9.268;2023-02-19T01:46:54;97818.19;;;10.77;98.91
4814;BME280;15375;48.540;9.268;2023-02-19T01:49:34;97820.06;;;10.84;98.62
4814;BME280;15375;48.540;9.268;2023-02-19T01:52:29;97800.16;;;10.87;98.04
4814;BME280;15375;48.540;9.268;2023-02-19T01:54:57;97799.78;;;10.85;97.83
4814;BME280;15375;48.540;9.268;2023-02-19T01:57:25;97800.91;;;10.87;97.93
4814;BME280;15375;48.540;9.268;2023-02-19T01:59:56;97789.38;;;10.76;97.95
4814;BME280;15375;48.540;9.268;2023-02-19T02:02:23;97798.69;;;10.79;97.87
4814;BME280;15375;48.540;9.268;2023-02-19T02:04:53;97785.97;;;10.65;97.66
4814;BME280;15375;48.540;9.268;2023-02-19T02:07:19;97789.41;;;10.73;97.68
4814;BME280;15375;48.540;9.268;2023-02-19T02:10:04;97809.59;;;10.79;97.95
4814;BME280;15375;48.540;9.268;2023-02-19T02:12:48;97797.88;;;10.82;97.52
4814;BME280;15375;48.540;9.268;2023-02-19T02:15:15;97788.63;;;10.72;97.15
4814;BME280;15375;48.540;9.268;2023-02-19T02:20:30;97798.34;;;10.77;96.90
4814;BME280;15375;48.540;9.268;2023-02-19T02:31:53;97803.66;;;10.87;94.82
4814;BME280;15375;48.540;9.268;2023-02-19T02:34:31;97796.34;;;10.77;94.63
4814;BME280;15375;48.540;9.268;2023-02-19T02:36:59;97799.91;;;10.74;95.67
4814;BME280;15375;48.540;9.268;2023-02-19T02:39:27;97799.13;;;10.74;95.64
4814;BME280;15375;48.540;9.268;2023-02-19T02:41:56;97807.69;;;10.76;95.74
4814;BME280;15375;48.540;9.268;2023-02-19T02:44:41;97788.34;;;10.63;95.31
4814;BME280;15375;48.540;9.268;2023-02-19T02:47:28;97791.44;;;10.65;94.57
4814;BME280;15375;48.540;9.268;2023-02-19T02:50:21;97779.69;;;10.72;94.38
4814;BME280;15375;48.540;9.268;2023-02-19T02:52:53;97777.00;;;10.65;94.64
4814;BME280;15375;48.540;9.268;2023-02-19T02:55:41;97786.03;;;10.62;95.16
4814;BME280;15375;48.540;9.268;2023-02-19T02:58:08;97782.47;;;10.65;94.53
4814;BME280;15375;48.540;9.268;2023-02-19T03:00:36;97781.31;;;10.62;94.85
4814;BME280;15375;48.540;9.268;2023-02-19T03:03:22;97780.25;;;10.56;94.18
4814;BME280;15375;48.540;9.268;2023-02-19T03:05:51;97753.41;;;10.51;94.13
4814;BME280;15375;48.540;9.268;2023-02-19T03:08:27;97756.47;;;10.57;93.58
4814;BME280;15375;48.540;9.268;2023-02-19T03:10:58;97746.31;;;10.57;92.61
4814;BME280;15375;48.540;9.268;2023-02-19T03:13:45;97760.66;;;10.65;92.27
4814;BME280;15375;48.540;9.268;2023-02-19T03:16:32;97757.19;;;10.61;92.12
4814;BME280;15375;48.540;9.268;2023-02-19T03:19:21;97765.09;;;10.52;92.71
4814;BME280;15375;48.540;9.268;2023-02-19T03:21:56;97724.31;;;10.41;91.13
4814;BME280;15375;48.540;9.268;2023-02-19T03:24:28;97764.22;;;10.58;90.95
4814;BME280;15375;48.540;9.268;2023-02-19T03:27:14;97763.06;;;10.59;91.03
4814;BME280;15375;48.540;9.268;2023-02-19T03:29:42;97758.00;;;10.58;91.41
4814;BME280;15375;48.540;9.268;2023-02-19T03:32:16;97761.94;;;10.53;91.53
4814;BME280;15375;48.540;9.268;2023-02-19T03:34:55;97766.25;;;10.54;90.98
4814;BME280;15375;48.540;9.268;2023-02-19T03:37:28;97752.72;;;10.44;91.14
4814;BME280;15375;48.540;9.268;2023-02-19T03:39:54;97751.28;;;10.32;92.00
4814;BME280;15375;48.540;9.268;2023-02-19T03:42:35;97750.16;;;10.30;93.01
4814;BME280;15375;48.540;9.268;2023-02-19T03:48:25;97772.97;;;10.43;93.41
4814;BME280;15375;48.540;9.268;2023-02-19T03:53:47;97767.25;;;10.30;94.40
4814;BME280;15375;48.540;9.268;2023-02-19T03:56:43;97784.81;;;10.25;95.47
4814;BME280;15375;48.540;9.268;2023-02-19T04:00:01;97782.53;;;10.24;98.00
4814;BME280;15375;48.540;9.268;2023-02-19T04:02:32;97781.84;;;10.13;98.29
4814;BME280;15375;48.540;9.268;2023-02-19T04:05:13;97799.75;;;10.14;99.70
4814;BME280;15375;48.540;9.268;2023-02-19T04:07:44;97788.56;;;9.98;99.42
4814;BME280;15375;48.540;9.268;2023-02-19T04:10:12;97795.19;;;9.97;100.00
4814;BME280;15375;48.540;9.268;2023-02-19T04:12:42;97787.41;;;9.95;100.00
4814;BME280;15375;48.540;9.268;2023-02-19T04:15:16;97796.66;;;10.05;99.54
4814;BME280;15375;48.540;9.268;2023-02-19T04:17:49;97776.88;;;9.97;98.77
4814;BME280;15375;48.540;9.268;2023-02-19T04:20:19;97773.41;;;9.97;97.31
4814;BME280;15375;48.540;9.268;2023-02-19T04:22:45;97770.28;;;9.95;96.73
4814;BME280;15375;48.540;9.268;2023-02-19T04:25:11;97802.84;;;10.12;96.19
4814;BME280;15375;48.540;9.268;2023-02-19T04:27:38;97812.59;;;10.13;96.80
4814;BME280;15375;48.540;9.268;2023-02-19T04:30:05;97782.38;;;9.94;97.26
4814;BME280;15375;48.540;9.268;2023-02-19T04:32:31;97811.44;;;10.07;97.21
4814;BME280;15375;48.540;9.268;2023-02-19T04:34:56;97809.19;;;9.95;98.48
4814;BME280;15375;48.540;9.268;2023-02-19T04:37:21;97805.31;;;9.93;98.61
4814;BME280;15375;48.540;9.268;2023-02-19T04:39:47;97822.00;;;10.02;99.12
4814;BME280;15375;48.540;9.268;2023-02-19T04:42:12;97804.59;;;9.85;98.79
4814;BME280;15375;48.540;9.268;2023-02-19T04:44:38;97827.91;;;9.90;99.78
4814;BME280;15375;48.540;9.268;2023-02-19T04:47:03;97809.28;;;9.85;98.77
4814;BME280;15375;48.540;9.268;2023-02-19T04:49:29;97834.13;;;9.94;99.46
4814;BME280;15375;48.540;9.268;2023-02-19T04:51:54;97831.78;;;9.92;99.59
4814;BME280;15375;48.540;9.268;2023-02-19T04:54:19;97839.94;;;9.99;99.23
4814;BME280;15375;48.540;9.268;2023-02-19T04:56:45;97835.31;;;9.93;100.00
4814;BME280;15375;48.540;9.268;2023-02-19T04:59:10;97845.00;;;9.97;100.00
4814;BME280;15375;48.540;9.268;2023-02-19T05:01:35;97849.28;;;9.95;100.00
4814;BME280;15375;48.540;9.268;2023-02-19T05:04:01;97828.03;;;9.76;100.00
4814;BME280;15375;48.540;9.268;2023-02-19T05:06:26;97825.78;;;9.63;100.00
4814;BME280;15375;48.540;9.268;2023-02-19T05:08:51;97825.78;;;9.60;100.00
4814;BME280;15375;48.540;9.268;2023-02-19T05:11:17;97846.47;;;9.54;100.00
4814;BME280;15375;48.540;9.268;2023-02-19T05:13:42;97849.19;;;9.50;100.00
4814;BME280;15375;48.540;9.268;2023-02-19T05:16:12;97856.94;;;9.55;100.00
4814;BME280;15375;48.540;9.268;2023-02-19T05:18:41;97840.66;;;9.45;100.00
4814;BME280;15375;48.540;9.268;2023-02-19T05:21:08;97858.16;;;9.51;100.00
4814;BME280;15375;48.540;9.268;2023-02-19T05:23:34;97867.84;;;9.59;100.00
4814;BME280;15375;48.540;9.268;2023-02-19T05:26:04;97858.16;;;9.51;100.00
4814;BME280;15375;48.540;9.268;2023-02-19T05:28:30;97831.78;;;9.34;100.00
4814;BME280;15375;48.540;9.268;2023-02-19T05:30:55;97863.13;;;9.59;100.00
4814;BME280;15375;48.540;9.268;2023-02-19T05:33:24;97869.00;;;9.61;100.00
4814;BME280;15375;48.540;9.268;2023-02-19T05:35:51;97860.88;;;9.51;100.00
4814;BME280;15375;48.540;9.268;2023-02-19T05:38:17;97883.41;;;9.58;100.00
4814;BME280;15375;48.540;9.268;2023-02-19T05:40:44;97881.84;;;9.57;100.00
4814;BME280;15375;48.540;9.268;2023-02-19T05:43:10;97871.72;;;9.54;100.00
4814;BME280;15375;48.540;9.268;2023-02-19T05:45:36;97874.03;;;9.59;100.00
4814;BME280;15375;48.540;9.268;2023-02-19T05:48:03;97884.56;;;9.57;100.00
4814;BME280;15375;48.540;9.268;2023-02-19T05:50:29;97882.63;;;9.58;100.00
4814;BME280;15375;48.540;9.268;2023-02-19T05:52:55;97865.16;;;9.48;100.00
4814;BME280;15375;48.540;9.268;2023-02-19T05:55:20;97862.84;;;9.43;100.00
4814;BME280;15375;48.540;9.268;2023-02-19T05:57:47;97882.22;;;9.59;100.00
4814;BME280;15375;48.540;9.268;2023-02-19T06:00:17;97877.22;;;9.51;100.00
4814;BME280;15375;48.540;9.268;2023-02-19T06:02:44;97880.31;;;9.49;100.00
4814;BME280;15375;48.540;9.268;2023-02-19T06:05:09;97868.25;;;9.47;100.00
4814;BME280;15375;48.540;9.268;2023-02-19T06:07:35;97875.69;;;9.46;100.00
4814;BME280;15375;48.540;9.268;2023-02-19T06:10:06;97881.91;;;9.43;100.00
4814;BME280;15375;48.540;9.268;2023-02-19T06:12:32;97874.50;;;9.47;100.00
4814;BME280;15375;48.540;9.268;2023-02-19T06:14:57;97888.06;;;9.54;100.00
4814;BME280;15375;48.540;9.268;2023-02-19T06:17:23;97880.34;;;9.42;100.00
4814;BME280;15375;48.540;9.268;2023-02-19T06:19:48;97897.84;;;9.48;100.00
4814;BME280;15375;48.540;9.268;2023-02-19T06:22:15;97904.81;;;9.49;100.00
4814;BME280;15375;48.540;9.268;2023-02-19T06:24:40;97902.13;;;9.46;100.00
4814;BME280;15375;48.540;9.268;2023-02-19T06:27:06;97850.16;;;9.12;100.00
4814;BME280;15375;48.540;9.268;2023-02-19T06:29:32;97913.81;;;9.46;100.00
4814;BME280;15375;48.540;9.268;2023-02-19T06:31:59;97920.38;;;9.52;100.00
4814;BME280;15375;48.540;9.268;2023-02-19T06:34:24;97926.25;;;9.44;100.00
4814;BME280;15375;48.540;9.268;2023-02-19T06:36:50;97949.94;;;9.54;100.00
4814;BME280;15375;48.540;9.268;2023-02-19T06:39:15;97916.16;;;9.37;100.00
4814;BME280;15375;48.540;9.268;2023-02-19T06:41:41;97944.91;;;9.45;100.00
4814;BME280;15375;48.540;9.268;2023-02-19T06:44:06;97947.63;;;9.49;100.00
4814;BME280;15375;48.540;9.268;2023-02-19T06:46:32;97947.22;;;9.47;100.00
4814;BME280;15375;48.540;9.268;2023-02-19T06:48:58;97958.88;;;9.54;100.00
4814;BME280;15375;48.540;9.268;2023-02-19T06:51:23;97968.22;;;9.53;100.00
4814;BME280;15375;48.540;9.268;2023-02-19T06:53:51;97962.81;;;9.46;100.00
4814;BME280;15375;48.540;9.268;2023-02-19T06:58:57;97994.72;;;9.39;100.00
4814;BME280;15375;48.540;9.268;2023-02-19T07:01:24;98005.63;;;9.32;100.00
4814;BME280;15375;48.540;9.268;2023-02-19T07:03:49;98007.22;;;9.05;100.00
4814;BME280;15375;48.540;9.268;2023-02-19T07:06:16;97987.81;;;8.92;100.00
4814;BME280;15375;48.540;9.268;2023-02-19T07:08:42;97979.25;;;9.01;100.00
4814;BME280;15375;48.540;9.268;2023-02-19T07:11:07;98008.38;;;9.14;100.00
4814;BME280;15375;48.540;9.268;2023-02-19T07:13:32;98012.66;;;9.19;100.00
4814;BME280;15375;48.540;9.268;2023-02-19T07:16:00;98000.22;;;9.07;100.00
4814;BME280;15375;48.540;9.268;2023-02-19T07:18:25;98001.78;;;9.01;100.00
4814;BME280;15375;48.540;9.268;2023-02-19T07:20:51;97993.22;;;8.99;100.00
4814;BME280;15375;48.540;9.268;2023-02-19T07:23:16;98018.47;;;9.07;100.00
4814;BME280;15375;48.540;9.268;2023-02-19T07:25:41;98025.09;;;9.09;100.00
4814;BME280;15375;48.540;9.268;2023-02-19T07:28:07;98015.78;;;9.03;100.00
4814;BME280;15375;48.540;9.268;2023-02-19T07:30:33;98035.97;;;9.23;100.00
4814;BME280;15375;48.540;9.268;2023-02-19T07:33:01;98036.75;;;9.13;100.00
4814;BME280;15375;48.540;9.268;2023-02-19T07:35:27;98024.31;;;9.02;100.00
4814;BME280;15375;48.540;9.268;2023-02-19T07:37:52;98020.44;;;9.10;100.00
4814;BME280;15375;48.540;9.268;2023-02-19T07:40:18;98034.44;;;9.08;100.00
4814;BME280;15375;48.540;9.268;2023-02-19T07:42:43;98017.34;;;8.97;100.00
4814;BME280;15375;48.540;9.268;2023-02-19T07:45:09;98041.41;;;9.20;100.00
4814;BME280;15375;48.540;9.268;2023-02-19T07:47:34;98040.63;;;9.19;100.00
4814;BME280;15375;48.540;9.268;2023-02-19T07:49:59;98016.56;;;9.11;100.00
4814;BME280;15375;48.540;9.268;2023-02-19T07:52:25;98018.47;;;9.17;100.00
4814;BME280;15375;48.540;9.268;2023-02-19T07:54:50;98039.47;;;9.27;100.00
4814;BME280;15375;48.540;9.268;2023-02-19T07:57:15;98040.22;;;9.24;100.00
4814;BME280;15375;48.540;9.268;2023-02-19T07:59:41;98046.84;;;9.27;100.00
4814;BME280;15375;48.540;9.268;2023-02-19T08:02:24;97986.66;;;8.82;100.00
4814;BME280;15375;48.540;9.268;2023-02-19T08:05:08;98049.97;;;9.18;100.00
4814;BME280;15375;48.540;9.268;2023-02-19T08:07:35;98054.25;;;9.23;100.00
4814;BME280;15375;48.540;9.268;2023-02-19T08:10:02;98054.25;;;9.23;100.00
4814;BME280;15375;48.540;9.268;2023-02-19T08:12:59;98038.31;;;9.14;100.00
4814;BME280;15375;48.540;9.268;2023-02-19T08:15:46;98036.00;;;9.16;100.00
4814;BME280;15375;48.540;9.268;2023-02-19T08:18:13;98045.28;;;9.22;100.00
4814;BME280;15375;48.540;9.268;2023-02-19T08:20:39;98046.06;;;9.30;100.00
4814;BME280;15375;48.540;9.268;2023-02-19T08:23:05;98034.41;;;9.22;100.00
4814;BME280;15375;48.540;9.268;2023-02-19T08:25:31;98053.44;;;9.40;100.00
4814;BME280;15375;48.540;9.268;2023-02-19T08:27:57;98040.22;;;9.35;100.00
4814;BME280;15375;48.540;9.268;2023-02-19T08:30:25;98060.84;;;9.32;100.00
4814;BME280;15375;48.540;9.268;2023-02-19T08:32:51;98060.06;;;9.25;100.00
4814;BME280;15375;48.540;9.268;2023-02-19T08:35:16;98038.34;;;9.04;100.00
4814;BME280;15375;48.540;9.268;2023-02-19T08:37:41;98071.75;;;9.25;100.00
4814;BME280;15375;48.540;9.268;2023-02-19T08:40:07;98079.53;;;9.16;100.00
4814;BME280;15375;48.540;9.268;2023-02-19T08:42:32;98081.88;;;9.11;100.00
4814;BME280;15375;48.540;9.268;2023-02-19T08:44:58;98080.31;;;9.03;100.00
4814;BME280;15375;48.540;9.268;2023-02-19T08:47:23;98099.34;;;9.13;100.00
4814;BME280;15375;48.540;9.268;2023-02-19T08:49:48;98097.03;;;9.15;100.00
4814;BME280;15375;48.540;9.268;2023-02-19T08:52:14;98095.84;;;9.13;100.00
4814;BME280;15375;48.540;9.268;2023-02-19T08:54:39;98080.31;;;9.10;100.00
4814;BME280;15375;48.540;9.268;2023-02-19T08:57:04;98092.75;;;9.25;100.00
4814;BME280;15375;48.540;9.268;2023-02-19T08:59:30;98091.56;;;9.29;100.00
4814;BME280;15375;48.540;9.268;2023-02-19T09:01:59;98097.41;;;9.24;100.00
4814;BME280;15375;48.540;9.268;2023-02-19T09:04:24;98099.72;;;9.33;100.00
4814;BME280;15375;48.540;9.268;2023-02-19T09:06:50;98092.75;;;9.21;100.00
4814;BME280;15375;48.540;9.268;2023-02-19T09:09:15;98089.22;;;9.24;100.00
4814;BME280;15375;48.540;9.268;2023-02-19T09:11:40;98097.00;;;9.33;100.00
4814;BME280;15375;48.540;9.268;2023-02-19T09:14:06;98079.13;;;9.35;100.00
4814;BME280;15375;48.540;9.268;2023-02-19T09:16:35;98108.28;;;9.49;100.00
4814;BME280;15375;48.540;9.268;2023-02-19T09:19:01;98118.00;;;9.53;100.00
4814;BME280;15375;48.540;9.268;2023-02-19T09:21:26;98117.22;;;9.53;100.00
4814;BME280;15375;48.540;9.268;2023-02-19T09:23:52;98118.78;;;9.50;98.96
4814;BME280;15375;48.540;9.268;2023-02-19T09:26:17;98091.16;;;9.34;100.00
4814;BME280;15375;48.540;9.268;2023-02-19T09:28:43;98112.56;;;9.39;99.26
4814;BME280;15375;48.540;9.268;2023-02-19T09:31:10;98115.28;;;9.50;99.90
4814;BME280;15375;48.540;9.268;2023-02-19T09:33:36;98134.34;;;9.60;99.95
4814;BME280;15375;48.540;9.268;2023-02-19T09:36:02;98123.84;;;9.45;100.00
4814;BME280;15375;48.540;9.268;2023-02-19T09:38:28;98146.41;;;9.42;100.00
4814;BME280;15375;48.540;9.268;2023-02-19T09:40:58;98161.97;;;9.24;100.00
4814;BME280;15375;48.540;9.268;2023-02-19T09:43:30;98180.22;;;9.06;100.00
4814;BME280;15375;48.540;9.268;2023-02-19T09:46:08;98172.78;;;8.85;100.00
4814;BME280;15375;48.540;9.268;2023-02-19T09:48:38;98174.28;;;8.65;100.00
4814;BME280;15375;48.540;9.268;2023-02-19T09:51:04;98173.09;;;8.59;100.00
4814;BME280;15375;48.540;9.268;2023-02-19T09:53:39;98191.03;;;8.77;100.00
4814;BME280;15375;48.540;9.268;2023-02-19T09:56:06;98171.22;;;8.77;100.00
4814;BME280;15375;48.540;9.268;2023-02-19T09:58:34;98157.16;;;8.54;100.00
4814;BME280;15375;48.540;9.268;2023-02-19T10:01:02;98166.56;;;8.81;100.00
4814;BME280;15375;48.540;9.268;2023-02-19T10:03:31;98133.50;;;8.79;100.00
4814;BME280;15375;48.540;9.268;2023-02-19T10:06:22;98187.22;;;9.17;100.00
4814;BME280;15375;48.540;9.268;2023-02-19T10:08:51;98185.28;;;9.32;100.00
4814;BME280;15375;48.540;9.268;2023-02-19T10:11:18;98158.84;;;9.36;100.00
4814;BME280;15375;48.540;9.268;2023-02-19T10:13:53;98190.34;;;9.69;100.00
4814;BME280;15375;48.540;9.268;2023-02-19T10:16:24;98188.38;;;9.80;100.00
4814;BME280;15375;48.540;9.268;2023-02-19T10:18:50;98164.28;;;9.82;100.00
4814;BME280;15375;48.540;9.268;2023-02-19T10:21:19;98172.81;;;9.94;100.00
4814;BME280;15375;48.540;9.268;2023-02-19T10:23:46;98186.81;;;10.07;100.00
4814;BME280;15375;48.540;9.268;2023-02-19T10:26:13;98161.91;;;10.01;100.00
4814;BME280;15375;48.540;9.268;2023-02-19T10:28:38;98190.69;;;10.09;100.00
4814;BME280;15375;48.540;9.268;2023-02-19T10:31:10;98196.16;;;10.16;100.00
4814;BME280;15375;48.540;9.268;2023-02-19T10:33:52;98149.44;;;9.90;100.00
4814;BME280;15375;48.540;9.268;2023-02-19T10:38:53;98169.31;;;9.94;100.00
4814;BME280;15375;48.540;9.268;2023-02-19T10:41:20;98170.06;;;10.12;100.00
4814;BME280;15375;48.540;9.268;2023-02-19T10:43:54;98182.09;;;10.32;100.00
4814;BME280;15375;48.540;9.268;2023-02-19T10:46:23;98193.72;;;10.43;98.28
4814;BME280;15375;48.540;9.268;2023-02-19T10:49:21;98204.56;;;10.57;100.00
4814;BME280;15375;48.540;9.268;2023-02-19T10:51:48;98193.00;;;10.25;100.00
4814;BME280;15375;48.540;9.268;2023-02-19T10:54:31;98212.50;;;10.06;100.00
4814;BME280;15375;48.540;9.268;2023-02-19T10:57:29;98216.81;;;10.14;100.00
4814;BME280;15375;48.540;9.268;2023-02-19T10:59:59;98218.72;;;10.20;100.00
4814;BME280;15375;48.540;9.268;2023-02-19T11:02:26;98210.91;;;10.37;100.00
4814;BME280;15375;48.540;9.268;2023-02-19T11:05:15;98209.69;;;10.45;98.16
4814;BME280;15375;48.540;9.268;2023-02-19T11:07:52;98196.13;;;10.23;97.26
4814;BME280;15375;48.540;9.268;2023-02-19T11:12:53;98185.88;;;10.56;96.45
4814;BME280;15375;48.540;9.268;2023-02-19T11:15:31;98200.41;;;10.28;93.63
4814;BME280;15375;48.540;9.268;2023-02-19T11:18:03;98206.63;;;10.32;98.84
4814;BME280;15375;48.540;9.268;2023-02-19T11:20:29;98134.69;;;9.84;98.81
4814;BME280;15375;48.540;9.268;2023-02-19T11:22:59;98188.34;;;10.11;98.51
4814;BME280;15375;48.540;9.268;2023-02-19T11:25:26;98177.06;;;10.13;99.52
4814;BME280;15375;48.540;9.268;2023-02-19T11:27:56;98186.03;;;10.06;97.93
4814;BME280;15375;48.540;9.268;2023-02-19T11:30:41;98184.47;;;10.12;100.00
4814;BME280;15375;48.540;9.268;2023-02-19T11:35:45;98186.81;;;10.03;100.00
4814;BME280;15375;48.540;9.268;2023-02-19T11:38:13;98123.03;;;9.69;100.00
4814;BME280;15375;48.540;9.268;2023-02-19T11:46:16;98181.28;;;10.39;97.45
4814;BME280;15375;48.540;9.268;2023-02-19T11:51:53;98171.91;;;10.43;95.58
4814;BME280;15375;48.540;9.268;2023-02-19T11:54:39;98170.00;;;10.37;92.79
4814;BME280;15375;48.540;9.268;2023-02-19T12:00:28;98170.38;;;10.35;91.48
4814;BME280;15375;48.540;9.268;2023-02-19T12:06:03;98185.97;;;10.31;90.50
4814;BME280;15375;48.540;9.268;2023-02-19T12:17:02;98183.69;;;10.08;83.57
4814;BME280;15375;48.540;9.268;2023-02-19T12:22:16;98209.75;;;10.20;84.06
4814;BME280;15375;48.540;9.268;2023-02-19T12:38:41;98181.22;;;10.53;78.08
4814;BME280;15375;48.540;9.268;2023-02-19T12:41:38;98160.50;;;10.62;74.44
4814;BME280;15375;48.540;9.268;2023-02-19T12:44:10;98142.22;;;10.59;73.05
4814;BME280;15375;48.540;9.268;2023-02-19T12:46:42;98116.63;;;10.39;74.72
4814;BME280;15375;48.540;9.268;2023-02-19T12:49:16;98120.81;;;10.54;74.62
4814;BME280;15375;48.540;9.268;2023-02-19T12:51:48;98120.34;;;10.66;73.80
4814;BME280;15375;48.540;9.268;2023-02-19T12:54:27;98152.84;;;11.09;71.68
4814;BME280;15375;48.540;9.268;2023-02-19T12:59:39;98147.44;;;10.98;70.97
4814;BME280;15375;48.540;9.268;2023-02-19T13:04:48;98141.19;;;10.98;73.15
4814;BME280;15375;48.540;9.268;2023-02-19T13:07:38;98156.03;;;10.97;74.71
4814;BME280;15375;48.540;9.268;2023-02-19T13:10:21;98121.34;;;10.94;75.28
4814;BME280;15375;48.540;9.268;2023-02-19T13:12:51;98142.28;;;11.14;73.36
4814;BME280;15375;48.540;9.268;2023-02-19T13:15:24;98102.63;;;10.96;73.08
4814;BME280;15375;48.540;9.268;2023-02-19T13:17:54;98126.56;;;11.29;73.31
4814;BME280;15375;48.540;9.268;2023-02-19T13:20:30;98133.22;;;11.72;73.75
4814;BME280;15375;48.540;9.268;2023-02-19T13:22:59;98119.31;;;11.93;71.54
4814;BME280;15375;48.540;9.268;2023-02-19T13:35:12;98123.38;;;11.34;73.64
4814;BME280;15375;48.540;9.268;2023-02-19T13:37:40;98079.75;;;11.27;72.85
4814;BME280;15375;48.540;9.268;2023-02-19T13:40:38;98108.06;;;11.47;73.69
4814;BME280;15375;48.540;9.268;2023-02-19T13:43:23;98125.28;;;11.40;73.81
4814;BME280;15375;48.540;9.268;2023-02-19T13:45:57;98138.41;;;11.56;72.21
4814;BME280;15375;48.540;9.268;2023-02-19T13:51:37;98133.31;;;11.14;73.48
4814;BME280;15375;48.540;9.268;2023-02-19T14:04:40;98132.56;;;11.06;69.92
4814;BME280;15375;48.540;9.268;2023-02-19T14:14:41;98134.47;;;11.13;68.72
4814;BME280;15375;48.540;9.268;2023-02-19T14:30:51;98147.56;;;10.80;71.87
4814;BME280;15375;48.540;9.268;2023-02-19T14:36:02;98132.06;;;10.67;71.04
4814;BME280;15375;48.540;9.268;2023-02-19T14:38:37;98152.22;;;10.83;73.64
4814;BME280;15375;48.540;9.268;2023-02-19T14:41:05;98165.44;;;10.88;72.53
4814;BME280;15375;48.540;9.268;2023-02-19T14:43:32;98135.63;;;10.57;73.90
4814;BME280;15375;48.540;9.268;2023-02-19T14:46:02;98137.28;;;10.33;77.26
4814;BME280;15375;48.540;9.268;2023-02-19T14:48:34;98176.94;;;10.45;77.98
4814;BME280;15375;48.540;9.268;2023-02-19T14:51:29;98189.91;;;10.12;80.44
4814;BME280;15375;48.540;9.268;2023-02-19T14:53:56;98166.25;;;9.63;83.02
4814;BME280;15375;48.540;9.268;2023-02-19T14:56:30;98160.00;;;9.67;84.66
4814;BME280;15375;48.540;9.268;2023-02-19T15:01:38;98172.06;;;9.76;88.50
4814;BME280;15375;48.540;9.268;2023-02-19T15:04:05;98203.97;;;9.86;91.99
4814;BME280;15375;48.540;9.268;2023-02-19T15:06:33;98136.28;;;9.42;90.48
4814;BME280;15375;48.540;9.268;2023-02-19T15:09:04;98194.63;;;9.73;90.32
4814;BME280;15375;48.540;9.268;2023-02-19T15:11:32;98190.34;;;9.76;90.02
4814;BME280;15375;48.540;9.268;2023-02-19T15:14:01;98201.25;;;9.86;88.98
4814;BME280;15375;48.540;9.268;2023-02-19T15:16:28;98195.38;;;9.88;89.76
4814;BME280;15375;48.540;9.268;2023-02-19T15:18:56;98205.50;;;9.87;88.75
4814;BME280;15375;48.540;9.268;2023-02-19T15:21:31;98212.91;;;10.01;88.84
4814;BME280;15375;48.540;9.268;2023-02-19T15:24:04;98203.97;;;9.83;89.19
4814;BME280;15375;48.540;9.268;2023-02-19T15:26:37;98216.03;;;9.99;87.12
4814;BME280;15375;48.540;9.268;2023-02-19T15:29:08;98203.19;;;9.72;85.38
4814;BME280;15375;48.540;9.268;2023-02-19T15:31:35;98233.16;;;9.82;86.92
4814;BME280;15375;48.540;9.268;2023-02-19T15:34:00;98228.47;;;9.72;86.52